createdAt,value
2018-02-12T00:00:33.332Z,18.4
2018-02-12T00:01:34.105Z,18.5
2018-02-12T00:02:34.830Z,19.7
2018-02-12T00:03:35.550Z,19.4
2018-02-12T00:04:36.273Z,19.2
2018-02-12T00:05:37.050Z,19.0
2018-02-12T00:06:37.777Z,17.5
2018-02-12T00:07:38.520Z,16.5
2018-02-12T00:08:39.290Z,16.8
2018-02-12T00:09:40.033Z,17.9
2018-02-12T00:10:40.810Z,17.6
2018-02-12T00:11:41.604Z,17.7
2018-02-12T00:12:42.315Z,18.7
2018-02-12T00:13:43.336Z,19.0
2018-02-12T00:14:44.067Z,20.7
2018-02-12T00:15:44.777Z,20.3
2018-02-12T00:16:45.493Z,22.3
2018-02-12T00:17:46.309Z,23.1
2018-02-12T00:18:47.098Z,23.8
2018-02-12T00:19:47.821Z,26.1
2018-02-12T00:20:48.584Z,24.5
2018-02-12T00:21:49.330Z,26.3
2018-02-12T00:22:50.023Z,25.5
2018-02-12T00:23:50.743Z,23.3
2018-02-12T00:24:51.544Z,22.7
2018-02-12T00:25:52.570Z,24.2
2018-02-12T00:26:53.382Z,24.6
2018-02-12T00:27:54.082Z,22.9
2018-02-12T00:28:54.801Z,23.4
2018-02-12T00:29:55.581Z,24.9
2018-02-12T00:30:56.295Z,25.5
2018-02-12T00:31:57.093Z,24.5
2018-02-12T00:32:57.840Z,25.8
2018-02-12T00:33:58.593Z,25.2
2018-02-12T00:34:59.370Z,26.0
2018-02-12T00:36:00.091Z,25.0
2018-02-12T00:37:00.850Z,23.6
2018-02-12T00:38:01.520Z,23.1
2018-02-12T00:39:02.240Z,21.9
2018-02-12T00:40:02.947Z,23.6
2018-02-12T00:41:03.675Z,22.7
2018-02-12T00:42:04.458Z,22.0
2018-02-12T00:43:05.196Z,21.9
2018-02-12T00:44:05.907Z,20.8
2018-02-12T00:45:06.628Z,20.9
2018-02-12T00:46:07.410Z,19.5
2018-02-12T00:47:08.127Z,20.7
2018-02-12T00:48:08.895Z,19.9
2018-02-12T00:49:09.659Z,18.8
2018-02-12T00:50:10.392Z,18.1
2018-02-12T00:51:11.105Z,18.3
2018-02-12T00:52:11.830Z,17.5
2018-02-12T00:53:12.561Z,17.2
2018-02-12T00:54:13.276Z,17.0
2018-02-12T00:55:13.988Z,17.6
2018-02-12T00:56:14.702Z,15.7
2018-02-12T00:57:15.420Z,17.3
2018-02-12T00:58:16.127Z,16.8
2018-02-12T00:59:16.848Z,17.0
2018-02-12T01:00:17.640Z,16.9
2018-02-12T01:01:18.342Z,18.3
2018-02-12T01:02:19.080Z,17.8
2018-02-12T01:03:19.803Z,17.6
2018-02-12T01:04:20.537Z,17.5
2018-02-12T01:05:21.297Z,18.4
2018-02-12T01:06:22.022Z,17.4
2018-02-12T01:07:22.780Z,17.6
2018-02-12T01:08:23.506Z,18.4
2018-02-12T01:09:24.254Z,18.3
2018-02-12T01:10:24.979Z,19.1
2018-02-12T01:11:25.789Z,18.8
2018-02-12T01:12:26.569Z,18.9
2018-02-12T01:13:27.287Z,20.1
2018-02-12T01:14:28.064Z,20.5
2018-02-12T01:15:28.801Z,20.9
2018-02-12T01:16:29.587Z,20.9
2018-02-12T01:17:30.299Z,21.5
2018-02-12T01:18:31.098Z,21.2
2018-02-12T01:19:31.820Z,22.9
2018-02-12T01:20:32.549Z,22.5
2018-02-12T01:21:33.274Z,23.4
2018-02-12T01:22:33.981Z,24.8
2018-02-12T01:23:34.697Z,26.8
2018-02-12T01:24:35.418Z,27.0
2018-02-12T01:25:36.120Z,28.5
2018-02-12T01:26:36.843Z,29.7
2018-02-12T01:27:37.570Z,31.0
2018-02-12T01:28:38.280Z,32.6
2018-02-12T01:29:39.035Z,34.3
2018-02-12T01:30:39.784Z,34.0
2018-02-12T01:31:40.542Z,35.3
2018-02-12T01:32:41.270Z,37.3
2018-02-12T01:33:41.988Z,37.7
2018-02-12T01:34:42.784Z,38.5
2018-02-12T01:35:43.528Z,41.3
2018-02-12T01:36:44.308Z,41.8
2018-02-12T01:37:45.081Z,42.9
2018-02-12T01:38:45.810Z,44.6
2018-02-12T01:39:46.536Z,44.4
2018-02-12T01:40:47.310Z,46.0
2018-02-12T01:41:48.018Z,45.8
2018-02-12T01:42:48.732Z,46.7
2018-02-12T01:43:49.513Z,45.1
2018-02-12T01:44:50.280Z,46.6
2018-02-12T01:45:50.997Z,47.7
2018-02-12T01:46:51.730Z,48.1
2018-02-12T01:47:52.519Z,49.7
2018-02-12T01:48:53.233Z,49.4
2018-02-12T01:49:53.945Z,49.2
2018-02-12T01:50:54.680Z,49.4
2018-02-12T01:51:55.458Z,49.5
2018-02-12T01:52:56.178Z,48.1
2018-02-12T01:53:56.903Z,49.5
2018-02-12T01:54:57.630Z,49.3
2018-02-12T01:55:58.408Z,50.4
2018-02-12T01:56:59.191Z,49.7
2018-02-12T01:57:59.920Z,50.8
2018-02-12T01:59:00.642Z,51.0
2018-02-12T02:00:01.420Z,51.3
2018-02-12T02:01:02.140Z,49.0
2018-02-12T02:02:02.854Z,49.0
2018-02-12T02:03:03.581Z,49.0
2018-02-12T02:04:04.287Z,49.6
2018-02-12T02:05:05.005Z,48.4
2018-02-12T02:06:05.717Z,48.0
2018-02-12T02:07:06.433Z,49.1
2018-02-12T02:08:07.217Z,48.9
2018-02-12T02:09:07.933Z,47.0
2018-02-12T02:10:08.636Z,48.8
2018-02-12T02:11:09.355Z,48.6
2018-02-12T02:12:10.071Z,46.9
2018-02-12T02:13:10.789Z,47.7
2018-02-12T02:14:11.620Z,45.8
2018-02-12T02:15:12.350Z,45.2
2018-02-12T02:16:13.049Z,44.8
2018-02-12T02:17:13.779Z,47.0
2018-02-12T02:18:14.532Z,45.4
2018-02-12T02:19:15.341Z,43.5
2018-02-12T02:20:16.077Z,42.6
2018-02-12T02:21:16.839Z,41.3
2018-02-12T02:22:17.549Z,39.4
2018-02-12T02:23:18.247Z,39.6
2018-02-12T02:24:18.979Z,41.4
2018-02-12T02:25:19.696Z,41.8
2018-02-12T02:26:20.550Z,40.3
2018-02-12T02:27:21.264Z,38.2
2018-02-12T02:28:21.978Z,39.9
2018-02-12T02:29:22.709Z,39.8
2018-02-12T02:30:23.426Z,39.1
2018-02-12T02:31:24.199Z,39.0
2018-02-12T02:32:24.861Z,38.5
2018-02-12T02:33:25.574Z,38.5
2018-02-12T02:34:26.311Z,39.7
2018-02-12T02:35:27.029Z,38.2
2018-02-12T02:36:27.793Z,39.4
2018-02-12T02:37:28.585Z,38.0
2018-02-12T02:38:29.375Z,39.0
2018-02-12T02:39:30.092Z,38.5
2018-02-12T02:40:30.856Z,38.1
2018-02-12T02:41:31.620Z,36.8
2018-02-12T02:42:32.375Z,36.4
2018-02-12T02:43:33.095Z,39.5
2018-02-12T02:44:33.803Z,38.8
2018-02-12T02:45:34.617Z,38.8
2018-02-12T02:46:35.393Z,38.7
2018-02-12T02:47:36.469Z,39.7
2018-02-12T02:48:37.180Z,37.8
2018-02-12T02:49:37.957Z,37.9
2018-02-12T02:50:38.679Z,38.9
2018-02-12T02:51:39.452Z,39.1
2018-02-12T02:52:40.277Z,36.8
2018-02-12T02:53:41.028Z,38.2
2018-02-12T02:54:41.810Z,37.0
2018-02-12T02:55:42.587Z,36.7
2018-02-12T02:56:43.377Z,36.8
2018-02-12T02:57:44.100Z,35.7
2018-02-12T02:58:44.932Z,36.1
2018-02-12T02:59:45.715Z,38.2
2018-02-12T03:00:46.441Z,37.8
2018-02-12T03:01:47.161Z,37.5
2018-02-12T03:02:47.883Z,37.3
2018-02-12T03:03:48.947Z,38.5
2018-02-12T03:04:49.666Z,36.2
2018-02-12T03:05:50.386Z,35.6
2018-02-12T03:06:51.102Z,36.7
2018-02-12T03:07:51.830Z,37.0
2018-02-12T03:08:52.601Z,36.4
2018-02-12T03:09:53.311Z,35.5
2018-02-12T03:10:54.036Z,37.0
2018-02-12T03:11:54.804Z,36.1
2018-02-12T03:12:55.532Z,34.7
2018-02-12T03:13:56.638Z,34.7
2018-02-12T03:14:57.409Z,33.8
2018-02-12T03:15:58.199Z,32.9
2018-02-12T03:16:58.924Z,32.4
2018-02-12T03:17:59.639Z,32.7
2018-02-12T03:19:00.368Z,32.6
2018-02-12T03:20:01.142Z,32.4
2018-02-12T03:21:01.906Z,32.3
2018-02-12T03:22:02.715Z,31.1
2018-02-12T03:23:03.512Z,31.1
2018-02-12T03:24:04.230Z,32.0
2018-02-12T03:25:04.960Z,30.7
2018-02-12T03:26:05.693Z,30.0
2018-02-12T03:27:06.479Z,29.1
2018-02-12T03:28:07.195Z,29.5
2018-02-12T03:29:07.931Z,31.1
2018-02-12T03:30:08.662Z,28.5
2018-02-12T03:31:09.418Z,29.3
2018-02-12T03:32:10.140Z,29.9
2018-02-12T03:33:10.848Z,31.0
2018-02-12T03:34:11.574Z,29.8
2018-02-12T03:35:12.299Z,29.1
2018-02-12T03:36:13.027Z,29.4
2018-02-12T03:37:13.757Z,28.9
2018-02-12T03:38:14.499Z,29.2
2018-02-12T03:39:15.218Z,30.3
2018-02-12T03:40:15.929Z,29.9
2018-02-12T03:41:16.644Z,30.5
2018-02-12T03:42:17.415Z,30.2
2018-02-12T03:43:18.078Z,28.7
2018-02-12T03:44:18.811Z,29.3
2018-02-12T03:45:19.598Z,30.0
2018-02-12T03:46:20.329Z,29.6
2018-02-12T03:47:21.109Z,30.8
2018-02-12T03:48:21.819Z,30.4
2018-02-12T03:49:22.537Z,29.7
2018-02-12T03:50:23.266Z,30.1
2018-02-12T03:51:24.029Z,29.8
2018-02-12T03:52:24.841Z,30.0
2018-02-12T03:53:25.609Z,28.1
2018-02-12T03:54:26.331Z,28.3
2018-02-12T03:55:27.120Z,30.3
2018-02-12T03:56:27.897Z,29.3
2018-02-12T03:57:28.623Z,29.7
2018-02-12T03:58:29.379Z,29.4
2018-02-12T03:59:30.111Z,30.3
2018-02-12T04:00:30.859Z,29.9
2018-02-12T04:01:31.579Z,29.9
2018-02-12T04:02:32.372Z,29.5
2018-02-12T04:03:33.162Z,29.8
2018-02-12T04:04:34.182Z,29.5
2018-02-12T04:05:34.904Z,28.0
2018-02-12T04:06:35.616Z,28.0
2018-02-12T04:07:36.330Z,27.1
2018-02-12T04:08:37.056Z,26.7
2018-02-12T04:09:37.793Z,26.9
2018-02-12T04:10:38.564Z,27.0
2018-02-12T04:11:39.284Z,27.5
2018-02-12T04:12:40.078Z,27.0
2018-02-12T04:13:40.797Z,26.5
2018-02-12T04:14:41.526Z,26.0
2018-02-12T04:15:42.270Z,26.2
2018-02-12T04:16:42.990Z,25.1
2018-02-12T04:17:43.703Z,27.0
2018-02-12T04:18:44.414Z,26.1
2018-02-12T04:19:45.135Z,23.7
2018-02-12T04:20:45.937Z,25.1
2018-02-12T04:21:46.647Z,24.7
2018-02-12T04:22:47.372Z,24.7
2018-02-12T04:23:48.161Z,24.6
2018-02-12T04:24:48.913Z,25.4
2018-02-12T04:25:49.597Z,24.9
2018-02-12T04:26:50.313Z,24.4
2018-02-12T04:27:51.059Z,23.9
2018-02-12T04:28:51.808Z,25.1
2018-02-12T04:29:52.584Z,24.2
2018-02-12T04:30:53.380Z,24.0
2018-02-12T04:31:54.103Z,23.8
2018-02-12T04:32:54.877Z,25.0
2018-02-12T04:33:55.604Z,23.1
2018-02-12T04:34:56.326Z,24.7
2018-02-12T04:35:57.050Z,25.2
2018-02-12T04:36:57.830Z,24.6
2018-02-12T04:37:58.551Z,24.7
2018-02-12T04:38:59.277Z,23.3
2018-02-12T04:40:00.023Z,23.2
2018-02-12T04:41:00.733Z,23.6
2018-02-12T04:42:01.570Z,22.8
2018-02-12T04:43:02.304Z,24.0
2018-02-12T04:44:03.018Z,23.2
2018-02-12T04:45:03.735Z,23.9
2018-02-12T04:46:04.518Z,22.8
2018-02-12T04:47:05.323Z,23.8
2018-02-12T04:48:06.000Z,22.3
2018-02-12T04:49:06.710Z,22.7
2018-02-12T04:50:07.426Z,22.4
2018-02-12T04:51:08.158Z,23.7
2018-02-12T04:52:08.951Z,24.7
2018-02-12T04:53:09.668Z,23.2
2018-02-12T04:54:10.388Z,24.7
2018-02-12T04:55:11.121Z,25.3
2018-02-12T04:56:11.845Z,24.0
2018-02-12T04:57:12.618Z,24.8
2018-02-12T04:58:13.348Z,25.2
2018-02-12T04:59:14.150Z,24.7
2018-02-12T05:00:14.930Z,24.2
2018-02-12T05:01:15.708Z,25.0
2018-02-12T05:02:16.432Z,23.4
2018-02-12T05:03:17.238Z,22.5
2018-02-12T05:04:18.020Z,22.4
2018-02-12T05:05:18.743Z,22.1
2018-02-12T05:06:19.510Z,21.2
2018-02-12T05:07:20.235Z,21.3
2018-02-12T05:08:21.015Z,20.9
2018-02-12T05:09:21.800Z,20.6
2018-02-12T05:10:22.507Z,20.1
2018-02-12T05:11:23.229Z,19.2
2018-02-12T05:12:23.967Z,20.6
2018-02-12T05:13:24.669Z,20.0
2018-02-12T05:14:25.392Z,20.2
2018-02-12T05:15:26.154Z,19.7
2018-02-12T05:16:26.872Z,19.8
2018-02-12T05:17:27.638Z,19.4
2018-02-12T05:18:28.358Z,20.7
2018-02-12T05:19:29.095Z,18.8
2018-02-12T05:20:29.809Z,18.9
2018-02-12T05:21:30.588Z,20.1
2018-02-12T05:22:31.321Z,19.7
2018-02-12T05:23:32.155Z,19.0
2018-02-12T05:24:32.837Z,19.2
2018-02-12T05:25:33.908Z,20.1
2018-02-12T05:26:34.626Z,19.4
2018-02-12T05:27:35.327Z,19.9
2018-02-12T05:28:36.044Z,20.2
2018-02-12T05:29:36.761Z,20.5
2018-02-12T05:30:37.486Z,20.8
2018-02-12T05:31:38.281Z,20.6
2018-02-12T05:32:39.011Z,22.4
2018-02-12T05:33:39.793Z,23.0
2018-02-12T05:34:40.596Z,23.8
2018-02-12T05:35:41.322Z,24.3
2018-02-12T05:36:42.109Z,25.4
2018-02-12T05:37:42.877Z,25.0
2018-02-12T05:38:43.639Z,26.8
2018-02-12T05:39:44.370Z,27.4
2018-02-12T05:40:45.132Z,26.8
2018-02-12T05:41:45.857Z,27.2
2018-02-12T05:42:46.566Z,28.8
2018-02-12T05:43:47.332Z,27.3
2018-02-12T05:44:48.057Z,28.0
2018-02-12T05:45:48.788Z,26.0
2018-02-12T05:46:49.521Z,24.9
2018-02-12T05:47:50.236Z,25.2
2018-02-12T05:48:50.977Z,23.8
2018-02-12T05:49:51.820Z,24.7
2018-02-12T05:50:52.538Z,26.4
2018-02-12T05:51:53.317Z,26.4
2018-02-12T05:52:54.043Z,25.6
2018-02-12T05:53:54.848Z,25.9
2018-02-12T05:54:55.914Z,28.3
2018-02-12T05:55:56.716Z,26.1
2018-02-12T05:56:57.477Z,26.8
2018-02-12T05:57:58.216Z,27.8
2018-02-12T05:58:58.951Z,28.0
2018-02-12T05:59:59.672Z,26.7
2018-02-12T06:01:00.501Z,26.7
2018-02-12T06:02:01.207Z,27.0
2018-02-12T06:03:01.933Z,27.9
2018-02-12T06:04:02.660Z,28.7
2018-02-12T06:05:03.386Z,27.8
2018-02-12T06:06:04.157Z,28.8
2018-02-12T06:07:04.870Z,29.0
2018-02-12T06:08:05.584Z,29.1
2018-02-12T06:09:06.315Z,29.0
2018-02-12T06:10:07.092Z,28.5
2018-02-12T06:11:07.831Z,29.1
2018-02-12T06:12:08.551Z,30.1
2018-02-12T06:13:09.309Z,29.5
2018-02-12T06:14:10.029Z,29.3
2018-02-12T06:15:10.812Z,30.6
2018-02-12T06:16:11.541Z,29.9
2018-02-12T06:17:12.268Z,30.1
2018-02-12T06:18:13.287Z,29.2
2018-02-12T06:19:14.010Z,29.5
2018-02-12T06:20:14.737Z,31.8
2018-02-12T06:21:15.420Z,31.1
2018-02-12T06:22:16.150Z,30.0
2018-02-12T06:23:16.914Z,29.1
2018-02-12T06:24:17.626Z,30.6
2018-02-12T06:25:18.352Z,31.8
2018-02-12T06:26:19.131Z,31.1
2018-02-12T06:27:19.871Z,32.0
2018-02-12T06:28:20.571Z,31.3
2018-02-12T06:29:21.386Z,30.5
2018-02-12T06:30:22.200Z,30.3
2018-02-12T06:31:22.932Z,30.6
2018-02-12T06:32:23.703Z,30.5
2018-02-12T06:33:24.369Z,30.3
2018-02-12T06:34:25.145Z,31.3
2018-02-12T06:35:25.841Z,31.7
2018-02-12T06:36:26.561Z,30.8
2018-02-12T06:37:27.274Z,29.1
2018-02-12T06:38:27.993Z,28.7
2018-02-12T06:39:28.728Z,29.1
2018-02-12T06:40:29.487Z,28.6
2018-02-12T06:41:30.198Z,28.2
2018-02-12T06:42:30.992Z,29.7
2018-02-12T06:43:31.713Z,29.9
2018-02-12T06:44:32.514Z,29.3
2018-02-12T06:45:33.590Z,30.8
2018-02-12T06:46:34.367Z,28.8
2018-02-12T06:47:35.087Z,30.2
2018-02-12T06:48:35.811Z,29.2
2018-02-12T06:49:36.531Z,28.5
2018-02-12T06:50:37.298Z,29.0
2018-02-12T06:51:38.494Z,27.2
2018-02-12T06:52:39.147Z,26.6
2018-02-12T06:53:39.884Z,29.1
2018-02-12T06:54:40.588Z,27.4
2018-02-12T06:55:41.296Z,27.4
2018-02-12T06:56:42.027Z,28.9
2018-02-12T06:57:42.770Z,26.0
2018-02-12T06:58:43.489Z,26.9
2018-02-12T06:59:44.506Z,27.5
2018-02-12T07:00:45.238Z,26.1
2018-02-12T07:01:46.050Z,25.8
2018-02-12T07:02:46.780Z,25.2
2018-02-12T07:03:47.490Z,25.3
2018-02-12T07:04:48.244Z,26.8
2018-02-12T07:05:48.958Z,25.1
2018-02-12T07:06:49.721Z,24.8
2018-02-12T07:07:50.450Z,25.0
2018-02-12T07:08:51.222Z,25.3
2018-02-12T07:09:51.937Z,26.4
2018-02-12T07:10:52.646Z,25.9
2018-02-12T07:11:53.357Z,26.4
2018-02-12T07:12:54.090Z,25.9
2018-02-12T07:13:54.816Z,24.5
2018-02-12T07:14:55.558Z,25.8
2018-02-12T07:15:56.274Z,26.4
2018-02-12T07:16:56.987Z,25.9
2018-02-12T07:17:57.714Z,25.6
2018-02-12T07:18:58.458Z,24.8
2018-02-12T07:19:59.238Z,24.1
2018-02-12T07:21:00.072Z,22.9
2018-02-12T07:22:00.780Z,22.1
2018-02-12T07:23:01.581Z,22.1
2018-02-12T07:24:02.317Z,21.9
2018-02-12T07:25:03.050Z,20.2
2018-02-12T07:26:03.760Z,21.1
2018-02-12T07:27:04.467Z,19.3
2018-02-12T07:28:05.186Z,19.9
2018-02-12T07:29:05.903Z,19.7
2018-02-12T07:30:06.646Z,19.2
2018-02-12T07:31:07.432Z,19.3
2018-02-12T07:32:08.596Z,17.3
2018-02-12T07:33:09.326Z,19.4
2018-02-12T07:34:10.108Z,17.1
2018-02-12T07:35:10.843Z,17.1
2018-02-12T07:36:11.616Z,18.2
2018-02-12T07:37:12.368Z,17.7
2018-02-12T07:38:13.158Z,17.6
2018-02-12T07:39:13.869Z,17.6
2018-02-12T07:40:14.647Z,15.8
2018-02-12T07:41:15.441Z,16.9
2018-02-12T07:42:16.233Z,16.3
2018-02-12T07:43:16.959Z,16.5
2018-02-12T07:44:17.677Z,16.3
2018-02-12T07:45:18.387Z,15.8
2018-02-12T07:46:19.125Z,16.3
2018-02-12T07:47:19.953Z,16.2
2018-02-12T07:48:20.706Z,15.3
2018-02-12T07:49:21.458Z,14.7
2018-02-12T07:50:22.177Z,14.4
2018-02-12T07:51:22.905Z,13.6
2018-02-12T07:52:23.720Z,13.6
2018-02-12T07:53:24.445Z,13.7
2018-02-12T07:54:25.184Z,13.2
2018-02-12T07:55:25.981Z,13.0
2018-02-12T07:56:26.730Z,14.0
2018-02-12T07:57:27.488Z,13.3
2018-02-12T07:58:28.220Z,14.3
2018-02-12T07:59:28.950Z,13.6
2018-02-12T08:00:29.686Z,13.7
2018-02-12T08:01:30.377Z,12.7
2018-02-12T08:02:31.405Z,12.3
2018-02-12T08:03:32.137Z,12.2
2018-02-12T08:04:32.860Z,12.4
2018-02-12T08:05:33.595Z,11.2
2018-02-12T08:06:34.360Z,11.5
2018-02-12T08:07:35.106Z,11.3
2018-02-12T08:08:35.837Z,11.9
2018-02-12T08:09:36.609Z,11.3
2018-02-12T08:10:37.371Z,12.0
2018-02-12T08:11:38.097Z,12.3
2018-02-12T08:12:38.828Z,13.1
2018-02-12T08:13:39.559Z,12.5
2018-02-12T08:14:40.332Z,12.4
2018-02-12T08:15:41.072Z,12.5
2018-02-12T08:16:41.868Z,12.4
2018-02-12T08:17:42.592Z,12.9
2018-02-12T08:18:43.330Z,12.3
2018-02-12T08:19:44.106Z,11.8
2018-02-12T08:20:44.876Z,12.5
2018-02-12T08:21:45.606Z,13.2
2018-02-12T08:22:46.351Z,12.4
2018-02-12T08:23:47.108Z,14.3
2018-02-12T08:24:47.840Z,14.3
2018-02-12T08:25:48.994Z,13.8
2018-02-12T08:26:50.085Z,13.3
2018-02-12T08:27:50.750Z,14.9
2018-02-12T08:28:51.600Z,13.2
2018-02-12T08:29:52.328Z,13.5
2018-02-12T08:30:53.165Z,14.1
2018-02-12T08:31:53.944Z,13.3
2018-02-12T08:32:54.665Z,13.8
2018-02-12T08:33:55.396Z,12.3
2018-02-12T08:34:56.191Z,12.3
2018-02-12T08:35:56.981Z,13.0
2018-02-12T08:36:57.791Z,12.6
2018-02-12T08:37:58.514Z,12.7
2018-02-12T08:38:59.238Z,14.8
2018-02-12T08:40:00.046Z,13.6
2018-02-12T08:41:00.919Z,12.3
2018-02-12T08:42:01.669Z,12.1
2018-02-12T08:43:02.375Z,11.9
2018-02-12T08:44:03.109Z,10.7
2018-02-12T08:45:03.829Z,10.8
2018-02-12T08:46:04.608Z,10.4
2018-02-12T08:47:05.639Z,11.4
2018-02-12T08:48:06.368Z,11.4
2018-02-12T08:49:07.088Z,10.7
2018-02-12T08:50:07.820Z,10.6
2018-02-12T08:51:08.577Z,10.6
2018-02-12T08:52:09.350Z,9.2
2018-02-12T08:53:10.082Z,10.2
2018-02-12T08:54:10.854Z,9.3
2018-02-12T08:55:11.579Z,10.1
2018-02-12T08:56:13.311Z,10.2
2018-02-12T08:57:14.335Z,11.0
2018-02-12T08:58:15.089Z,10.0
2018-02-12T08:59:15.874Z,10.9
2018-02-12T09:00:16.589Z,10.8
2018-02-12T09:01:17.317Z,10.4
2018-02-12T09:02:18.037Z,11.1
2018-02-12T09:03:18.764Z,10.3
2018-02-12T09:04:19.608Z,11.6
2018-02-12T09:05:20.415Z,10.7
2018-02-12T09:06:21.205Z,10.8
2018-02-12T09:07:21.991Z,10.3
2018-02-12T09:08:22.722Z,11.6
2018-02-12T09:09:23.504Z,11.6
2018-02-12T09:10:24.281Z,11.1
2018-02-12T09:11:25.374Z,10.7
2018-02-12T09:12:26.189Z,11.3
2018-02-12T09:13:26.913Z,10.6
2018-02-12T09:14:27.700Z,11.0
2018-02-12T09:15:28.423Z,10.2
2018-02-12T09:16:29.182Z,10.6
2018-02-12T09:17:29.889Z,9.2
2018-02-12T09:18:30.656Z,9.7
2018-02-12T09:19:31.394Z,9.1
2018-02-12T09:20:32.123Z,7.8
2018-02-12T09:21:32.867Z,8.0
2018-02-12T09:22:33.597Z,8.7
2018-02-12T09:23:34.371Z,9.2
2018-02-12T09:24:35.115Z,9.0
2018-02-12T09:25:35.878Z,9.1
2018-02-12T09:26:36.605Z,8.8
2018-02-12T09:27:37.330Z,8.9
2018-02-12T09:28:38.119Z,8.1
2018-02-12T09:29:38.842Z,9.8
2018-02-12T09:30:39.566Z,9.7
2018-02-12T09:31:40.278Z,10.0
2018-02-12T09:32:41.007Z,11.0
2018-02-12T09:33:41.822Z,12.4
2018-02-12T09:34:42.510Z,12.2
2018-02-12T09:35:43.247Z,12.8
2018-02-12T09:36:43.968Z,12.7
2018-02-12T09:37:44.704Z,12.6
2018-02-12T09:38:45.476Z,12.0
2018-02-12T09:39:46.201Z,11.4
2018-02-12T09:40:46.929Z,11.2
2018-02-12T09:41:47.653Z,11.4
2018-02-12T09:42:48.366Z,10.6
2018-02-12T09:43:49.087Z,11.3
2018-02-12T09:44:50.110Z,11.2
2018-02-12T09:45:50.826Z,10.2
2018-02-12T09:46:51.543Z,9.5
2018-02-12T09:47:52.282Z,9.9
2018-02-12T09:48:53.005Z,9.6
2018-02-12T09:49:53.785Z,10.1
2018-02-12T09:50:54.515Z,9.4
2018-02-12T09:51:55.252Z,9.8
2018-02-12T09:52:56.072Z,9.2
2018-02-12T09:53:56.797Z,9.7
2018-02-12T09:54:57.531Z,8.6
2018-02-12T09:55:58.263Z,8.3
2018-02-12T09:56:59.026Z,8.7
2018-02-12T09:58:01.395Z,8.7
2018-02-12T09:59:02.359Z,7.2
2018-02-12T10:00:03.257Z,7.0
2018-02-12T10:01:04.005Z,9.2
2018-02-12T10:02:05.645Z,8.2
2018-02-12T10:03:06.403Z,7.9
2018-02-12T10:04:07.118Z,6.4
2018-02-12T10:05:07.913Z,7.8
2018-02-12T10:06:08.642Z,7.5
2018-02-12T10:07:09.425Z,6.4
2018-02-12T10:08:10.237Z,6.7
2018-02-12T10:09:11.027Z,7.2
2018-02-12T10:10:11.854Z,6.6
2018-02-12T10:11:12.624Z,7.4
2018-02-12T10:12:13.357Z,7.5
2018-02-12T10:13:14.077Z,7.0
2018-02-12T10:14:14.818Z,7.3
2018-02-12T10:15:15.608Z,6.7
2018-02-12T10:16:16.327Z,7.9
2018-02-12T10:17:17.037Z,7.4
2018-02-12T10:18:17.768Z,6.7
2018-02-12T10:19:18.545Z,6.8
2018-02-12T10:20:19.279Z,6.6
2018-02-12T10:21:19.998Z,6.5
2018-02-12T10:22:20.752Z,5.4
2018-02-12T10:23:21.467Z,6.3
2018-02-12T10:24:22.189Z,5.7
2018-02-12T10:25:22.908Z,5.5
2018-02-12T10:26:24.190Z,5.7
2018-02-12T10:27:25.139Z,5.4
2018-02-12T10:28:25.860Z,6.3
2018-02-12T10:29:26.646Z,6.4
2018-02-12T10:30:27.368Z,6.9
2018-02-12T10:31:28.146Z,6.6
2018-02-12T10:33:43.207Z,7.1
2018-02-12T10:34:43.930Z,6.9
2018-02-12T10:35:44.646Z,7.6
2018-02-12T10:36:45.370Z,7.9
2018-02-12T10:37:46.081Z,7.7
2018-02-12T10:38:47.127Z,7.3
2018-02-12T10:39:47.860Z,7.9
2018-02-12T10:40:48.582Z,5.9
2018-02-12T10:41:49.321Z,7.0
2018-02-12T10:42:50.109Z,6.1
2018-02-12T10:43:50.878Z,5.8
2018-02-12T10:44:51.614Z,6.0
2018-02-12T10:45:52.321Z,6.9
2018-02-12T10:46:53.120Z,6.5
2018-02-12T10:47:53.847Z,6.7
2018-02-12T10:48:54.866Z,6.1
2018-02-12T10:49:55.600Z,6.7
2018-02-12T10:50:56.318Z,5.7
2018-02-12T10:51:57.039Z,5.9
2018-02-12T10:52:57.797Z,5.4
2018-02-12T10:53:58.577Z,6.0
2018-02-12T10:54:59.306Z,6.5
2018-02-12T10:56:00.107Z,5.9
2018-02-12T10:57:00.841Z,5.4
2018-02-12T10:58:01.568Z,5.4
2018-02-12T10:59:02.295Z,5.4
2018-02-12T11:00:03.409Z,5.1
2018-02-12T11:01:04.195Z,4.7
2018-02-12T11:02:05.633Z,5.0
2018-02-12T11:03:06.304Z,5.4
2018-02-12T11:04:07.122Z,4.5
2018-02-12T11:05:07.837Z,5.1
2018-02-12T11:06:08.559Z,4.6
2018-02-12T11:07:09.289Z,4.4
2018-02-12T11:08:10.023Z,4.3
2018-02-12T11:09:10.830Z,4.8
2018-02-12T11:10:11.559Z,4.3
2018-02-12T11:11:12.678Z,4.3
2018-02-12T11:12:13.401Z,3.7
2018-02-12T11:13:14.206Z,3.4
2018-02-12T11:14:14.981Z,3.9
2018-02-12T11:15:15.702Z,3.5
2018-02-12T11:16:16.419Z,3.9
2018-02-12T11:17:17.248Z,3.4
2018-02-12T11:18:18.040Z,3.2
2018-02-12T11:19:18.761Z,3.3
2018-02-12T11:20:19.490Z,3.6
2018-02-12T11:21:20.283Z,3.9
2018-02-12T11:22:21.061Z,4.0
2018-02-12T11:23:21.782Z,4.4
2018-02-12T11:24:22.498Z,4.3
2018-02-12T11:25:23.288Z,4.4
2018-02-12T11:26:23.996Z,4.6
2018-02-12T11:27:24.725Z,4.3
2018-02-12T11:28:25.446Z,4.4
2018-02-12T11:29:26.176Z,3.7
2018-02-12T11:30:26.905Z,4.2
2018-02-12T11:31:27.645Z,3.8
2018-02-12T11:32:28.395Z,3.8
2018-02-12T11:33:29.216Z,4.4
2018-02-12T11:34:30.056Z,3.7
2018-02-12T11:35:30.751Z,3.5
2018-02-12T11:36:31.476Z,4.3
2018-02-12T11:37:32.187Z,4.5
2018-02-12T11:38:32.915Z,4.1
2018-02-12T11:39:33.709Z,3.9
2018-02-12T11:40:34.500Z,4.4
2018-02-12T11:41:35.225Z,4.3
2018-02-12T11:42:35.949Z,3.8
2018-02-12T11:43:36.746Z,4.1
2018-02-12T11:44:37.528Z,4.1
2018-02-12T11:45:38.333Z,3.8
2018-02-12T11:46:39.137Z,4.2
2018-02-12T11:47:40.091Z,3.9
2018-02-12T11:48:40.787Z,4.5
2018-02-12T11:49:41.551Z,3.9
2018-02-12T11:50:42.585Z,4.5
2018-02-12T11:51:43.387Z,3.8
2018-02-12T11:52:44.121Z,4.5
2018-02-12T11:53:44.828Z,4.5
2018-02-12T11:54:45.560Z,3.8
2018-02-12T11:55:46.268Z,3.8
2018-02-12T11:56:47.288Z,4.1
2018-02-12T11:57:48.117Z,4.4
2018-02-12T11:58:48.792Z,5.2
2018-02-12T11:59:49.596Z,5.2
2018-02-12T12:00:50.307Z,5.5
2018-02-12T12:01:51.031Z,4.7
2018-02-12T12:02:51.775Z,5.6
2018-02-12T12:03:52.547Z,4.5
2018-02-12T12:04:53.334Z,4.5
2018-02-12T12:05:54.060Z,4.0
2018-02-12T12:06:54.846Z,4.5
2018-02-12T12:07:55.570Z,5.6
2018-02-12T12:08:56.290Z,5.0
2018-02-12T12:09:57.022Z,4.8
2018-02-12T12:10:57.773Z,5.2
2018-02-12T12:11:58.576Z,4.3
2018-02-12T12:12:59.300Z,4.7
2018-02-12T12:14:00.033Z,5.4
2018-02-12T12:15:00.749Z,5.1
2018-02-12T12:16:01.472Z,5.4
2018-02-12T12:17:02.548Z,5.0
2018-02-12T12:18:03.275Z,5.0
2018-02-12T12:19:03.998Z,5.7
2018-02-12T12:20:04.720Z,5.0
2018-02-12T12:21:05.436Z,5.2
2018-02-12T12:22:06.166Z,5.2
2018-02-12T12:23:06.879Z,4.6
2018-02-12T12:24:07.599Z,4.9
2018-02-12T12:25:08.340Z,5.3
2018-02-12T12:26:09.121Z,5.3
2018-02-12T12:27:09.847Z,5.1
2018-02-12T12:28:10.580Z,5.3
2018-02-12T12:29:11.361Z,5.2
2018-02-12T12:30:12.152Z,5.3
2018-02-12T12:31:12.818Z,5.5
2018-02-12T12:32:13.552Z,5.5
2018-02-12T12:33:14.676Z,5.2
2018-02-12T12:34:15.403Z,5.5
2018-02-12T12:35:16.122Z,5.3
2018-02-12T12:36:16.920Z,3.9
2018-02-12T12:37:17.650Z,4.3
2018-02-12T12:38:18.430Z,4.8
2018-02-12T12:39:19.174Z,5.4
2018-02-12T12:40:19.956Z,4.9
2018-02-12T12:41:20.781Z,4.2
2018-02-12T12:42:21.519Z,5.2
2018-02-12T12:43:22.653Z,4.0
2018-02-12T12:44:23.367Z,3.6
2018-02-12T12:45:24.098Z,4.6
2018-02-12T12:46:24.832Z,4.4
2018-02-12T12:47:25.596Z,3.8
2018-02-12T12:48:26.382Z,3.9
2018-02-12T12:49:27.108Z,3.7
2018-02-12T12:50:27.828Z,3.1
2018-02-12T12:51:28.571Z,3.8
2018-02-12T12:52:29.291Z,4.2
2018-02-12T12:53:30.312Z,4.7
2018-02-12T12:54:31.041Z,4.1
2018-02-12T12:55:31.780Z,4.1
2018-02-12T12:56:32.513Z,3.8
2018-02-12T12:57:33.237Z,3.0
2018-02-12T12:58:34.016Z,3.6
2018-02-12T12:59:34.747Z,3.7
2018-02-12T13:00:35.493Z,3.4
2018-02-12T13:01:36.268Z,2.8
2018-02-12T13:02:37.066Z,3.3
2018-02-12T13:03:37.808Z,3.5
2018-02-12T13:04:38.609Z,3.5
2018-02-12T13:05:39.346Z,3.4
2018-02-12T13:06:40.070Z,3.7
2018-02-12T13:07:40.812Z,3.8
2018-02-12T13:08:41.564Z,4.0
2018-02-12T13:09:42.636Z,3.2
2018-02-12T13:10:43.364Z,3.2
2018-02-12T13:11:44.156Z,3.0
2018-02-12T13:12:44.876Z,3.5
2018-02-12T13:13:45.603Z,3.4
2018-02-12T13:14:46.453Z,3.1
2018-02-12T13:15:47.244Z,2.9
2018-02-12T13:16:47.966Z,3.2
2018-02-12T13:17:48.690Z,3.0
2018-02-12T13:18:49.412Z,3.6
2018-02-12T13:19:50.151Z,3.5
2018-02-12T13:20:50.878Z,3.1
2018-02-12T13:21:51.607Z,4.0
2018-02-12T13:22:52.353Z,3.6
2018-02-12T13:23:53.107Z,3.0
2018-02-12T13:24:54.198Z,3.2
2018-02-12T13:25:54.958Z,3.8
2018-02-12T13:26:55.678Z,2.8
2018-02-12T13:27:56.407Z,3.9
2018-02-12T13:28:57.136Z,3.6
2018-02-12T13:29:57.912Z,3.2
2018-02-12T13:30:58.652Z,3.8
2018-02-12T13:31:59.376Z,2.8
2018-02-12T13:33:00.108Z,3.0
2018-02-12T13:34:00.830Z,2.7
2018-02-12T13:35:01.560Z,2.9
2018-02-12T13:36:02.361Z,3.3
2018-02-12T13:37:03.161Z,3.2
2018-02-12T13:38:03.955Z,2.4